MET: Información y Pronóstico Aeronáutico

///////////////////////////////////////////////////////////////////////////////////////////////////////////////////////////////////////////////////////////////////////////////////////////////////////////////////////////////////////////////

Member for

4 años 2 meses
Enviado por meteorologia el Jue, 10/06/2021 - 09:33
30/9

30 DE SEPTIEMBRE 2022

INFORMACION METEOROLOGICA AERONAUTICA (METAR) 18:00 UTC

Aeropuerto AEROPARQUE J. NEWBERY

30 - 18:00 METAR SABE 301800Z 10011KT 9999 FEW025 17/11 Q1022 NOSIG RMK PP000 =

Aeropuerto BAHIA BLANCA

30 - 18:01 METAR SAZB 301800Z 33011KT 310V010 CAVOK 23/06 Q1019 RMK PP000 =

Aeropuerto BARILOCHE

30 - 18:00 METAR SAZS 301800Z 29012KT 9999 SCT050 SCT100 15/01 Q1019 RMK PP/// =

Aeropuerto CATAMARCA

30 - 18:00 METAR SANC 301800 11006KT 9999 FEW050 27/08 Q1016 =

Aeropuerto CHAPELCO

30 - 18:00 METAR SAZY 301800Z 27012KT CAVOK 18/M06 Q1018 =

Aeropuerto COMODORO RIVADAVIA

30 - 18:00 METAR SAVC 301800Z 31004KT 250V040 CAVOK 17/01 Q1017 RMK PP999 =

Aeropuerto CORDOBA

30 - 18:00 METAR SACO 301800Z 07008KT 120V030 CAVOK 23/05 Q1018 NOSIG =

Aeropuerto CORRIENTES

30 - 18:00 METAR SARC 301800Z 23009KT 9999 SCT015 26/11 Q1017 =

Aeropuerto EL CALAFATE

30 - 18:00 METAR SAWC 301800Z 27019KT CAVOK 13/M11 Q1012 =

Aeropuerto EL PALOMAR

30 - 18:00 METAR SADP 301800Z 05007KT 330V120 9999 FEW047 20/06 Q1020 RMK PP000 =

Aeropuerto ESQUEL

30 - 18:00 METAR SAVE 301800Z 27008KT 210V300 9999 FEW037 15/01 Q1018 =

Aeropuerto EZEIZA

30 - 18:00 METAR SAEZ 301800Z 09008KT CAVOK 20/06 Q1021 NOSIG RMK PP000 =

Aeropuerto FORMOSA

30 - 18:00 METAR SARF 301800Z 23006KT 9999 BKN025 24/16 Q1017 =

Aeropuerto IGUAZU/CATARATAS

30 - 18:00 METAR SARI 301800Z VRB02KT 9999 BKN040 OVC080 22/17 Q1017 RMK PP000 =

Aeropuerto JUJUY

30 - 18:00 METAR SASJ 301800Z 11004KT 020V180 CAVOK 24/05 Q1020 RMK PP000 =

Aeropuerto LA RIOJA

30 - 18:00 METAR SANL 301800Z 27002KT 9999 FEW050 25/11 Q1017 =

Aeropuerto MALARGUE

30 - 18:00 METAR SAMM 301800Z 05007KT 9999 FEW030 SCT200 21/M03 Q1019 =

Aeropuerto MAR DEL PLATA

30 - 18:00 METAR SAZM 301800Z 07012KT 9999 FEW037 17/10 Q1023 RMK PP/// =

Aeropuerto MENDOZA

30 - 18:00 METAR SAME 301800Z 02008KT 070V320 CAVOK 24/05 Q1017 =

Aeropuerto MORON

30 - 18:00 METAR SADM 301800Z 09006KT 360V110 CAVOK 20/08 Q1021 =

Aeropuerto NEUQUEN

30 - 18:00 METAR SAZN 301800Z 25009KT CAVOK 25/M05 Q1015 =

Aeropuerto PARANA

30 - 18:00 METAR SAAP 301800Z 05003KT 9999 FEW040 22/09 Q1020 =

Aeropuerto POSADAS

30 - 18:00 METAR SARP 301800Z 18006KT 5000 -DZ OVC005 19/18 Q1018 =

Aeropuerto PUERTO MADRYN

30 - 18:00 METAR SAVY 301800Z 09007KT CAVOK 18/08 Q1016 =

Aeropuerto RECONQUISTA

30 - 18:00 METAR SATR 301800Z 14007KT 9999 FEW030 25/10 Q1018 =

Aeropuerto RESISTENCIA

30 - 18:00 METAR SARE 301800Z 18008KT 9999 SCT032 26/10 Q1017 RMK PP/// =

Aeropuerto RIO CUARTO

30 - 18:00 METAR SAOC 301800Z 05011G25KT CAVOK 24/M01 Q1018 =

Aeropuerto RIO GALLEGOS

30 - 18:00 METAR SAWG 301800Z 30008KT 270V360 9999 FEW035 SCT100 BKN200 12/M05 Q1011 =

Aeropuerto RIO GRANDE

30 - 18:00 METAR SAWE 301800Z 28023KT CAVOK 09/M02 Q1007 RMK PP000 =

Aeropuerto ROSARIO

30 - 18:00 METAR SAAR 301800Z 15004KT 110V190 CAVOK 23/06 Q1019 RMK PP000 =

Aeropuerto SALTA

30 - 18:00 METAR SASA 301800Z VRB05KT 9999 FEW040 23/03 Q1020 RMK PP000 =

Aeropuerto SAN FERNANDO

30 - 18:00 METAR SADF 301800Z 06008KT 9999 FEW040 20/09 Q1021 RMK PP000 =

Aeropuerto SAN JUAN

30 - 18:00 METAR SANU 301800Z 18003KT CAVOK 26/05 Q1017 =

Aeropuerto SAN LUIS

30 - 18:00 METAR SAOU 301800Z 36005KT 9999 FEW040 24/02 Q1018 =

Aeropuerto SAN RAFAEL

30 - 18:00 METAR SAMR 301800Z 07014KT 9999 FEW035 26/09 Q1016 =

Aeropuerto SANTA ROSA

30 - 18:00 METAR SAZR 301800Z 36013KT CAVOK 27/06 Q1017 =

Aeropuerto SANTIAGO DEL ESTERO

30 - 18:00 METAR SANE 301800Z 05004KT CAVOK 27/07 Q1018 =

Aeropuerto SAUCE VIEJO

30 - 18:00 METAR SAAV 301800Z 09003KT 9999 FEW030 24/11 Q1019 RMK PP/// =

Aeropuerto TANDIL

30 - 18:00 METAR SAZT 301800Z 34010KT 9999 FEW030 20/05 Q1021 =

Aeropuerto TERMAS DE RIO HONDO

30 - 18:00 METAR SANR 301800Z 23008KT CAVOK 25/10 Q1018 =

Aeropuerto TRELEW

30 - 18:00 METAR SAVT 301800Z 11010KT CAVOK 19/05 Q1016 RMK PP000 =

Aeropuerto TUCUMAN

30 - 18:00 METAR SANT 301800Z VRB06KT CAVOK 26/09 Q1018 RMK PP000 =

Aeropuerto USHUAIA

30 - 18:00 METAR SAWH 301800Z 32014G24KT CAVOK 09/M04 Q1002 RMK PP000 =

Aeropuerto VIEDMA

30 - 18:00 METAR SAVV 301800Z 34010KT 310V040 9999 FEW025 BKN200 27/07 Q1015 =

Aeropuerto VILLA REYNOLDS

30 - 18:00 METAR SAOR 301800Z 02006KT 9999 SCT030 26/06 Q1018 =

 PRONOSTICO DE AERODROMO (TAF) 17:00 UTC

Estación AEROPARQUE J. NEWBERY

30 - 17:00 TAF SABE 301700Z 3018/0118 09010KT CAVOK TX22/0118Z TN14/0110Z TEMPO 3019/0102 09010G20KT BECMG 0109/0111 02005KT =

Estación BAHIA BLANCA

30 - 17:00 TAF SAZB 301700Z 3018/0118 34015KT CAVOK TX25/0118Z TN14/0109Z BECMG 0112/0114 27010KT =

Estación BARILOCHE

30 - 17:00 TAF SAZS 301700Z 3018/0118 31010KT 9999 FEW040 TX16/3019Z TN00/0110Z BECMG 3023/0101 VRB03KT 8000 BKN015 TEMPO 0106/0109 3000 BR BKN005 BECMG 0111/0113 9999 SCT025 =

Estación CATAMARCA

30 - 17:00 TAF SANC 301700Z 3018/0118 02010KT CAVOK TX29/0118Z TN13/0110Z BECMG 3018/3021 02015G30KT CAVOK BECMG 0105/0108 02010KT CAVOK BECMG 0115/0118 02010G25KT CAVOK =

Estación CHAPELCO

30 - 17:00 TAF SAZY 301700Z 3018/0118 27010KT CAVOK TX17/0118Z TN02/0109Z BECMG 0100/0102 VRB03KT =

Estación COMODORO RIVADAVIA

30 - 17:00 TAF SAVC 301700Z 3018/0118 29012KT CAVOK TX20/3018Z TN09/0110Z TEMPO 3018/3021 05008KT BECMG 0101/0103 27015G25KT BECMG 0104/0106 VRB05KT =

Estación CORDOBA

30 - 17:00 TAF SACO 301700Z 3018/0118 02010KT CAVOK TX28/0118Z TN09/0110Z BECMG 0100/0103 34005KT CAVOK BECMG 0109/0112 36005KT CAVOK BECMG 0115/0118 02015KT CAVOK =

Estación CORRIENTES

30 - 17:00 TAF SARC 301700Z 3018/0118 18010KT 9999 SCT015 TX26/3019Z TN15/0110Z BECMG 3021/3023 CAVOK PROB30 0106/0112 3000 BR NSC =

Estación EL CALAFATE

30 - 17:00 TAF SAWC 301700Z 3018/0118 27012KT 9999 FEW030 TX10/3018Z TNM01/0110Z BECMG 3020/3022 28006KT SCT030 BKN070 PROB30 TEMPO 0108/0116 -RA BKN030 BKN050 =

Estación EL PALOMAR

30 - 17:00 TAF SADP 301700Z 3018/0118 VRB03KT CAVOK TX23/0118Z TN08/0109Z BECMG 3019/3021 CAVOK TEMPO 0107/0110 VRB03KT 3000 BR NSC =

Estación ESQUEL

30 - 17:00 TAF SAVE 301700Z 3018/0118 25012KT 9999 SCT030 BKN080 TX14/3018Z TNM02/0110Z BECMG 3022/0100 SCT040 BECMG 0106/0108 26006KT PROB30 TEMPO 0106/0112 0900 FG =

Estación EZEIZA

30 - 17:00 TAF SAEZ 301700Z 3018/0118 07010KT 9999 SCT030 TX23/0118Z TN08/0109Z BECMG 3019/3021 CAVOK BECMG 0105/0107 VRB03KT 3000 BR NSC TEMPO 0109/0111 0800 FG =

Estación FORMOSA

30 - 17:00 TAF SARF 301700Z 3018/0118 16005KT 9999 OVC025 TX24/3019Z TN15/0110Z BECMG 3021/3024 CAVOK PROB30 0106/0112 3000 BR NSC =

Estación IGUAZU/CATARATAS

30 - 17:00 TAF SARI 301700Z 3018/0118 28005KT 9999 FEW025 OVC080 TX23/3019Z TN15/0110Z PROB40 TEMPO 3019/3022 6000 SHRA SCT008 FEW050CB OVC050 BECMG 3023/0101 3000 BR SCT007 PROB40 0106/0112 0800 FG SCT005 =

Estación JUJUY

30 - 17:00 TAF SASJ 301700Z 3018/0118 02015 9999 SCT035 TX27/0118Z TN10/0110Z BECMG 0103/0106 25005KT CAVOK BECMG 0109/0112 05010KT 9999 FEW045 =

Estación LA RIOJA

30 - 17:00 TAF SANL 301700Z 3018/0118 05005KT CAVOK TX28/0118Z TN14/0110Z BECMG 0103/0106 20005KT CAVOKBECMG 0112/0115 14010KT CAVOK =

Estación MAR DEL PLATA

30 - 17:00 TAF SAZM 301700Z 3018/0118 07015KT 9999 SCT040 TX21/0116Z TN03/0109Z BECMG 0101/0103 34005KT CAVOK BECMG 0104/0105 4000 BR NSC TEMPO 0106/0109 0500 FG BKN003 BECMG 0111/0112 9999 SCT020 BECMG 0115/0117 05015KT =

Estación MENDOZA

30 - 17:00 TAF SAME 301700Z 3018/0118 04010KT CAVOK TX25/3020Z TN09/3010Z BECMG 0102/0104 20005KT BECMG 0115/0117 05010KT =

Estación NEUQUEN

30 - 17:00 TAF SAZN 301700Z 3018/0118 27020KT CAVOK TX25/3019Z TN09/0110Z BECMG 3021/3023 27005KT BECMG 0112/0114 10010KT =

Estación PARANA

30 - 17:00 TAF SAAP 301700Z 3018/0118 02010KT CAVOK TX27/0118Z TN12/0109Z =

Estación POSADAS

30 - 17:00 TAF SARP 301700Z 3018/0118 14005KT 9999 BKN007 OVC020 TX20/3019Z TN15/0110Z PROB30 TEMPO 3019/3022 6000 RA OVC010 BECMG 0100/0102 3000 BR SCT007 PROB40 0106/0110 0800 FG BECMG 0112/0114 9999 SCT025 =

Estación RESISTENCIA

30 - 17:00 TAF SARE 301700Z 3018/0118 18010KT 9999 SCT030 TX27/3019Z TN14/0110Z BECMG 3020/3023 CAVOK PROB30 0106/0112 3000 BR NSC =

Estación RIO CUARTO

30 - 17:00 TAF SAOC 301700Z 3018/0118 02010KT CAVOK TX28/0118Z TN11/0110Z BECMG 0106/0109 35010KT CAVOK BECMG 0115/0118 02015G25KT CAVOK =

Estación RIO GALLEGOS

30 - 17:00 TAF SAWG 301700Z 3018/0118 32008KT 9999 SCT030 TX15/3018Z TN04/0110Z BECMG 3019/3021 27015KT SCT030 BKN080 =

Estación RIO GRANDE

30 - 17:00 TAF SAWE 301700Z 3018/0118 31025G35KT 9999 SCT030 BKN070 TX10/3018Z TN03/0110Z BECMG 0107/0109 25025G35KT BKN030 =

Estación ROSARIO

30 - 17:00 TAF SAAR 301700Z 3018/0118 09005KT CAVOK TX28/0118Z TN14/0110Z =

Estación SALTA

30 - 17:00 TAF SASA 301700Z 3018/0118 02010KT 9999 SCT035 TX25/0118Z TN09/0110Z BECMG 0109/0112 23005KT 9999 FEW035 BECMG 0115/0118 05005KT CAVOK =

Estación SAN FERNANDO

30 - 17:00 TAF SADF 301700Z 3018/0118 07010KT 9999 FEW030 TX23/0118Z TN11/0110Z BECMG 3020/3022 09015KT CAVOK BECMG 0106/0108 02005KT PROB30 TEMPO 0108/0111 VRB02KT 5000 BR NSC BECMG 0115/0117 09010KT 9999 SCT030 =

Estación SAN JUAN

30 - 17:00 TAF SANU 301700Z 3018/0118 VRB03KT CAVOK TX27/3020Z TN08/3010Z BECMG 0103/0105 23005KT =

Estación SAN LUIS

30 - 17:00 TAF SAOU 301700Z 3018/0118 32005KT CAVOK TX26/3018Z TN12/3009Z BECMG 3018/3020 VRB03KT =

Estación SAN RAFAEL

30 - 17:00 TAF SAMR 301700Z 3018/0118 07010KT CAVOK TX26/3020Z TN07/3010Z BECMG 0102/0104 25005KT BECMG 0115/0117 03015KT =

Estación SANTA ROSA

30 - 17:00 TAF SAZR 301700Z 3018/0118 36015KT CAVOK TX27/0118Z TN13/0109Z =

Estación SANTIAGO DEL ESTERO

30 - 17:00 TAF SANE 301700Z 3018/0118 18005KT CAVOK TX29/0118Z TN13/0110Z BECMG 3015/3018 05005KT 9999 FEW045 BECMG 0103/0106 02005KT CAVOK BECMG 0115/0118 02010KT CAVOK =

Estación SAUCE VIEJO

30 - 17:00 TAF SAAV 301700Z 3018/0118 07005KT CAVOK TX27/0118Z TN12/0109Z =

Estación TERMAS DE RIO HONDO

30 - 17:00 TAF SANR 301700Z 3018/0118 14005KT CAVOK TX29/0118Z TN11/0110Z BECMG 0100/0103 02005KT CAVOK BECMG 0112/0115 02015KT CAVOK =

Estación TRELEW

30 - 17:00 TAF SAVT 301700Z 3018/0118 VRB03KT CAVOK TX23/3017Z TN06/0110Z BECMG 3021/3023 11012KT BECMG 0108/0110 23008KT =

Estación TUCUMAN

30 - 17:00 TAF SANT 301700Z 3018/0118 VRB02KT 7000 NSC TX29/3018Z TN12/0110Z BECMG 3016/3019 07005KT 8000 FEW050 BECMG 0103/0106 VRB03KT CAVOK BECMG 0113/0116 05010KT FEW035 =

Estación USHUAIA

30 - 17:00 TAF SAWH 301700Z 3018/0118 32010KT 9999 SCT030 BKN060 TX10/3018Z TN00/0110 BECMG 3019/3020 32015G25KT BECMG 0107/0709 23020G30KT -SHRASN BKN020 SCT050 =

Estación VIEDMA

30 - 17:00 TAF SAVV 301700Z 3018/0118 35015KT CAVOK TX28/3018Z TN10/0110Z BECMG 0100/0102 16008KT SCT030 SCT090 BECMG 0108/0110 VRB03KT CAVOK =